Ullapool, United Kingdom
Current Conditions -  °F | °C
As of 9:20 PM on Friday 19 Dec 2014 (Local Time) from EGPO Reporting Station
Few Clouds Few Clouds  
Wind Chill: 30°   Ceiling: Unl
Heat Index: 41°   Visibility: 6mi
Dew Point: 36°   Wind: 29mph
Humidity: 81%   Direction: 290°WNW
Pressure: 29.56"   Gusts: NA
Location:  57.9°N, 5.16°W
Report Text: EGPO 192120Z AUTO 29025KT 9999 FEW044/// 05/02 Q1001
Loading
Personal Weather Stations






























Interactive Weather Map New forecast layout! Learn more

10-Day Weather Forecast

Advertisements
Track Severe Weather on mobile